Disclaimer

Please do not use the information listed here in-flight or in-navigation, as they are not provided to us by the airports but are provided by volunteers, so they might be outdated.

Search


Regions


Airport information page

Radio informations:
Tower (TWR) - 125.5 MHz
Ground (GND) - 133.0 MHz
GCA - 122.6 MHz
Clearance delivery - 119.75 MHz
Approach (APP) - 120.8 MHz
METRO - 253.2 MHz

Airport informations:
Latitude: 31° 30' 20.72" N
Longitude: 065° 50' 52.16" E
Elevation: 3337 feet - 1017 meters
Operating hours: N/A
Operating agency: Military-civil joint use airport
Timezone: UTC+4:30
Fuel: JP-8, SemiKeroscene MIL Spec T-83133, without icing inhibitor

Runway information:
05/23 - 10532 x 148 feet< - >3210 x 45 meters

Recent METARs:
OAKN 190159Z 04003KT 9999 CLR 07/M04 A3015 RMK AO2A SLP187 WND DATA ESTMD Q1021 PA3093 DA2875 T00651042
OAKN 190159Z 04003KT 9999 CLR 07/M04 A3015 RMK AO2A SLP187 WND DATA ESTMD Q1021 PA3093 DA2875 T00651042
OAKN 190255Z 05004KT 9999 CLR 07/M04 A3017 RMK AO2A SLP193 WND DATA ESTMD Q1022 PA3074 DA2895 T00681037 52017

Airport on the map: